23. Mai 2022

Uhrzeit Code Wetter Temp. Sichtweite Wolken Wind METAR/SPECI
09:55
V
14 °C 10 km+ - 140°   140° 14 kt METAR EHMG 230755Z AUTO 14014KT 9999 NSC 14/11 Q1004
09:25
V
14 °C 10 km+ - 140°   140° 13 kt METAR EHMG 230725Z AUTO 14013KT 9999 NSC 14/11 Q1004
08:55
V
15 °C 10 km+ - 140°   140° 15 kt METAR EHMG 230655Z AUTO 14015KT 9999 NSC 15/11 Q1004
08:25
V
14 °C 10 km+ - 150°   150° 16 kt METAR EHMG 230625Z AUTO 15016KT 9999 NSC 14/10 Q1005
07:55
V
14 °C 10 km+ - 150°   150° 17 kt METAR EHMG 230555Z AUTO 15017KT 9999 NSC 14/10 Q1005
07:25
V
14 °C 10 km+ - 150°   150° 18 kt METAR EHMG 230525Z AUTO 15018KT 9999 NSC 14/10 Q1005
06:55
V
14 °C 10 km+ - 150°   150° 19 kt METAR EHMG 230455Z AUTO 15019KT 9999 NSC 14/10 Q1006
06:25
V
14 °C 10 km+ - 150°   150° 19 kt METAR EHMG 230425Z AUTO 15019KT 9999 NSC 14/10 Q1006
05:55
V
15 °C 10 km+ - 150°   150° 20 kt METAR EHMG 230355Z AUTO 15020KT 9999 NSC 15/10 Q1007
05:25
V
15 °C 10 km+ - 150°   150° 21 kt METAR EHMG 230325Z AUTO 15021KT 9999 NSC 15/10 Q1007
04:55
V
15 °C 10 km+ - 150°   150° 21 kt METAR EHMG 230255Z AUTO 15021KT 9999 NSC 15/10 Q1007
04:25
V
15 °C 10 km+ - 150°   150° 21 kt METAR EHMG 230225Z AUTO 15021KT 9999 NSC 15/10 Q1008
03:55
V
15 °C 10 km+ - 150°   150° 22 kt METAR EHMG 230155Z AUTO 15022KT 9999 NSC 15/10 Q1008
03:25
V
15 °C 10 km+ - 150°   150° 22 kt METAR EHMG 230125Z AUTO 15022KT 9999 NSC 15/10 Q1008
02:55
V
15 °C 10 km+ - 150°   150° 23 kt METAR EHMG 230055Z AUTO 15023KT 9999 NSC 15/10 Q1009
02:25
V
15 °C 10 km+ - 150°   150° 23 kt METAR EHMG 230025Z AUTO 15023KT 9999 NSC 15/10 Q1009
01:55
V
15 °C 10 km+ - 150°   150° 21 kt METAR EHMG 222355Z AUTO 15021KT 9999 NSC 15/10 Q1009
01:25
V
15 °C 10 km+ - 150°   150° 21 kt METAR EHMG 222325Z AUTO 15021KT 9999 NSC 15/11 Q1010
00:55
V
15 °C 10 km+ - 140°   140° 21 kt METAR EHMG 222255Z AUTO 14021KT 9999 NSC 15/11 Q1010
00:25
V
15 °C 10 km+ - 140°   140° 20 kt METAR EHMG 222225Z AUTO 14020KT 9999 NSC 15/11 Q1010

22. Mai 2022

Uhrzeit Code Wetter Temp. Sichtweite Wolken Wind METAR/SPECI
23:55
V
15 °C 10 km+ - 140°   140° 19 kt METAR EHMG 222155Z AUTO 14019KT 9999 NSC 15/11 Q1011
23:25
V
15 °C 10 km+ - 140°   140° 17 kt METAR EHMG 222125Z AUTO 14017KT 9999 NSC 15/12 Q1011
22:55
V
15 °C 10 km+ - 140°   140° 16 kt METAR EHMG 222055Z AUTO 14016KT 9999 NSC 15/12 Q1011
22:25
V
14 °C 10 km+ - 120°   120° 15 kt METAR EHMG 222025Z AUTO 12015KT 9999 NSC 14/11 Q1011
21:55
V
15 °C 10 km+ - 100°   100° 16 kt METAR EHMG 221955Z AUTO 10016KT 9999 NSC 15/10 Q1012
21:25
V
15 °C 10 km+ - 100°   100° 15 kt METAR EHMG 221925Z AUTO 10015KT 9999 NSC 15/10 Q1012
20:55
V
15 °C 10 km+ - 110°   110° 16 kt METAR EHMG 221855Z AUTO 11016KT 9999 NSC 15/10 Q1012
20:25
V
15 °C 10 km+ - 110°   110° 13 kt METAR EHMG 221825Z AUTO 11013KT 9999 NSC 15/11 Q1013
19:55
V
14 °C 10 km+ - 110°   110° 12 kt METAR EHMG 221755Z AUTO 11012KT 9999 NSC 14/11 Q1013
19:25
V
15 °C 10 km+ - 110°   110° 10 kt METAR EHMG 221725Z AUTO 11010KT 9999 NSC 15/10 Q1013
18:55
V
14 °C 10 km+ - 110°   110° 5 kt METAR EHMG 221655Z AUTO 11005KT 9999 NSC 14/11 Q1014
18:25
V
15 °C 10 km+ - 170°   170° 10 kt METAR EHMG 221625Z AUTO 17010KT 9999 NSC 15/09 Q1014
17:55
V
14 °C 10 km+ - 170°   170° 6 kt METAR EHMG 221555Z AUTO 17006KT 9999 NSC 14/11 Q1014
17:25
V
15 °C 10 km+ - 200°   200° 5 kt METAR EHMG 221525Z AUTO 20005KT 9999 NSC 15/11 Q1014
16:55
V
14 °C 10 km+ - 220°   220° 7 kt METAR EHMG 221455Z AUTO 22007KT 9999 NSC 14/11 Q1014
16:25
V
14 °C 10 km+ - 220°   220° 8 kt METAR EHMG 221425Z AUTO 22008KT 9999 NSC 14/11 Q1015
15:55
V
14 °C 10 km+ - 210°   210° 8 kt METAR EHMG 221355Z AUTO 21008KT 9999 NSC 14/11 Q1015
15:25
V
14 °C 10 km+ - 220°   220° 10 kt METAR EHMG 221325Z AUTO 22010KT 9999 NSC 14/11 Q1015
14:55
V
14 °C 10 km+ - 220°   220° 11 kt METAR EHMG 221255Z AUTO 22011KT 9999 NSC 14/11 Q1015
14:25
V
13 °C 10 km+ - 220°   220° 13 kt METAR EHMG 221225Z AUTO 22013KT 9999 NSC 13/11 Q1015
13:55
V
13 °C 10 km+ - 220°   220° 14 kt METAR EHMG 221155Z AUTO 22014KT 9999 NSC 13/10 Q1016
13:25
V
13 °C 10 km+ - 220°   220° 15 kt METAR EHMG 221125Z AUTO 22015KT 9999 NSC 13/10 Q1016
12:55
V
13 °C 10 km+ - 220°   220° 13 kt METAR EHMG 221055Z AUTO 22013KT 9999 NCD 13/10 Q1016
12:25
V
13 °C 10 km+ - 220°   220° 14 kt METAR EHMG 221025Z AUTO 22014KT 9999 NSC 13/11 Q1016
11:55
V
13 °C 10 km+ - 210°   210° 15 kt METAR EHMG 220955Z AUTO 21015KT 9999 NSC 13/11 Q1017
11:25
V
13 °C 10 km+ - 210°   210° 14 kt METAR EHMG 220925Z AUTO 21014KT 9999 NSC 13/11 Q1017
10:55
V
13 °C 10 km+ - 220°   220° 15 kt METAR EHMG 220855Z AUTO 22015KT 9999 NSC 13/11 Q1017
10:25
V
13 °C 10 km+ - 210°   210° 14 kt METAR EHMG 220825Z AUTO 21014KT 9999 NSC 13/11 Q1017
09:55
V
13 °C 10 km+ - 220°   220° 14 kt METAR EHMG 220755Z AUTO 22014KT 9999 NSC 13/11 Q1017
09:25
V
13 °C 10 km+ - 210°   210° 14 kt METAR EHMG 220725Z AUTO 21014KT 9999 NSC 13/11 Q1017
08:55
V
13 °C 10 km+ - 210°   210° 13 kt METAR EHMG 220655Z AUTO 21013KT 9999 NCD 13/11 Q1017
08:25
V
13 °C 10 km+ - 210°   210° 13 kt METAR EHMG 220625Z AUTO 21013KT 9999 NCD 13/11 Q1017
07:55
V
13 °C 10 km+ - 210°   210° 13 kt METAR EHMG 220555Z AUTO 21013KT 9999 NCD 13/11 Q1017
07:25
V
13 °C 10 km+ - 200°   200° 12 kt METAR EHMG 220525Z AUTO 20012KT 9999 NCD 13/11 Q1017
06:55
V
13 °C 10 km+ - 200°   200° 12 kt METAR EHMG 220455Z AUTO 20012KT 9999 NSC 13/10 Q1017
06:25
V
13 °C 10 km+ - 210°   210° 11 kt METAR EHMG 220425Z AUTO 21011KT 9999 SCT048/// 13/10 Q1017
05:55
V
13 °C 10 km+ - 210°   210° 10 kt METAR EHMG 220355Z AUTO 21010KT 9999 NSC 13/09 Q1017
05:25
V
12 °C 10 km+ - 210°   210° 7 kt METAR EHMG 220325Z AUTO 21007KT 9999 NSC 12/09 Q1018
04:55
V
13 °C 10 km+ - 210°   210° 9 kt METAR EHMG 220255Z AUTO 21009KT 9999 NSC 13/09 Q1018
04:25
V
13 °C 10 km+ - 220°   220° 9 kt METAR EHMG 220225Z AUTO 22009KT 9999 NSC 13/08 Q1018
03:55
V
12 °C 10 km+ - 230°   230° 8 kt METAR EHMG 220155Z AUTO 23008KT 9999 NSC 12/09 Q1018
03:25
V
12 °C 10 km+ - 230°   230° 7 kt METAR EHMG 220125Z AUTO 23007KT 9999 NSC 12/09 Q1019
02:55
V
12 °C 10 km+ - 230°   230° 8 kt METAR EHMG 220055Z AUTO 23008KT 9999 NSC 12/09 Q1018
02:25
V
12 °C 10 km+ - 230°   230° 7 kt METAR EHMG 220025Z AUTO 23007KT 9999 NSC 12/09 Q1019
01:55
V
12 °C 10 km+ - 230°   230° 6 kt METAR EHMG 212355Z AUTO 23006KT 9999 NSC 12/10 Q1019
01:25
V
12 °C 10 km+ - 240°   240° 8 kt METAR EHMG 212325Z AUTO 24008KT 9999 NSC 12/10 Q1019
00:55
V
12 °C 10 km+ - 230°   230° 7 kt METAR EHMG 212255Z AUTO 23007KT 9999 NSC 12/10 Q1019
00:25
V
12 °C 10 km+ - 230°   230° 9 kt METAR EHMG 212225Z AUTO 23009KT 9999 NSC 12/09 Q1019

21. Mai 2022

Uhrzeit Code Wetter Temp. Sichtweite Wolken Wind METAR/SPECI
23:55
V
12 °C 10 km+ - 230°   230° 9 kt METAR EHMG 212155Z AUTO 23009KT 9999 NSC 12/09 Q1019
23:25
V
12 °C 10 km+ - 230°   230° 8 kt METAR EHMG 212125Z AUTO 23008KT 9999 NSC 12/09 Q1020
22:55
V
12 °C 10 km+ - 230°   230° 7 kt METAR EHMG 212055Z AUTO 23007KT 9999 NSC 12/09 Q1020
22:25
V
12 °C 10 km+ - 240°   240° 9 kt METAR EHMG 212025Z AUTO 24009KT 9999 NSC 12/09 Q1020
21:55
V
12 °C 10 km+ - 240°   240° 8 kt METAR EHMG 211955Z AUTO 24008KT 9999 NSC 12/09 Q1020
21:25
V
12 °C 10 km+ - 250°   250° 6 kt METAR EHMG 211925Z AUTO 25006KT 9999 NSC 12/09 Q1020
20:55
V
12 °C 10 km+ - 250°   250° 7 kt METAR EHMG 211855Z AUTO 25007KT 9999 NSC 12/10 Q1020
20:25
V
12 °C 10 km+ - 260°   260° 10 kt METAR EHMG 211825Z AUTO 26010KT 9999 NSC 12/10 Q1020
19:55
V
12 °C 10 km+ - 260°   260° 10 kt METAR EHMG 211755Z AUTO 26010KT 9999 NSC 12/10 Q1020
19:25
V
12 °C 10 km+ - 260°   260° 10 kt METAR EHMG 211725Z AUTO 26010KT 9999 NSC 12/09 Q1020
18:55
V
12 °C 10 km+ - 260°   260° 11 kt METAR EHMG 211655Z AUTO 26011KT 9999 NSC 12/09 Q1020
18:25
V
12 °C 10 km+ - 270°   270° 12 kt METAR EHMG 211625Z AUTO 27012KT 9999 NSC 12/09 Q1020
17:55
V
12 °C 10 km+ - 270°   270° 12 kt METAR EHMG 211555Z AUTO 27012KT 9999 NSC 12/09 Q1021
17:25
V
12 °C 10 km+ - 270°   270° 12 kt METAR EHMG 211525Z AUTO 27012KT 9999 NSC 12/09 Q1020
16:55
V
12 °C 10 km+ - 270°   270° 13 kt METAR EHMG 211455Z AUTO 27013KT 9999 NSC 12/09 Q1020
16:25
V
12 °C 10 km+ - 270°   270° 15 kt METAR EHMG 211425Z AUTO 27015KT 9999 NSC 12/09 Q1020
15:55
V
12 °C 10 km+ - 270°   270° 15 kt METAR EHMG 211355Z AUTO 27015KT 9999 NSC 12/09 Q1021
15:25
V
12 °C 10 km+ - 270°   270° 16 kt METAR EHMG 211325Z AUTO 27016KT 9999 NSC 12/09 Q1020
14:55
V
12 °C 10 km+ - 260°   260° 16 kt METAR EHMG 211255Z AUTO 26016KT 9999 NSC 12/09 Q1020
14:25
V
12 °C 10 km+ - 270°   270° 16 kt METAR EHMG 211225Z AUTO 27016KT 9999 NSC 12/09 Q1020
13:55
V
12 °C 10 km+ - 260°   260° 17 kt METAR EHMG 211155Z AUTO 26017KT 9999 NSC 12/10 Q1020
13:25
V
12 °C 10 km+ - 260°   260° 17 kt METAR EHMG 211125Z AUTO 26017KT 9999 NSC 12/10 Q1020
12:55
V
12 °C 10 km+ - 260°   260° 18 kt METAR EHMG 211055Z AUTO 26018KT 9999 NSC 12/10 Q1020
12:25
V
12 °C 10 km+ - 270°   270° 18 kt METAR EHMG 211025Z AUTO 27018KT 9999 NSC 12/09 Q1019
11:55
V
12 °C 10 km+ - 260°   260° 20 kt METAR EHMG 210955Z AUTO 26020KT 9999 NCD 12/10 Q1019
11:25
V
12 °C 10 km+ - 270°   270° 20 kt METAR EHMG 210925Z AUTO 27020KT 9999 NCD 12/10 Q1019
10:55
V
12 °C 10 km+ - 270°   270° 19 kt METAR EHMG 210855Z AUTO 27019KT 9999 NCD 12/10 Q1019
10:25
V
12 °C 10 km+ - 270°   270° 19 kt METAR EHMG 210825Z AUTO 27019KT 9999 NCD 12/10 Q1018
09:55
V
12 °C 10 km+ - 270°   270° 22 kt METAR EHMG 210755Z AUTO 27022KT 9999 NCD 12/10 Q1018
09:25
V
12 °C 10 km+ - 270°   270° 21 kt METAR EHMG 210725Z AUTO 27021KT 9999 NCD 12/10 Q1018
08:55
V
12 °C 10 km+ - 260°   260° 22 kt METAR EHMG 210655Z AUTO 26022KT 9999 NCD 12/10 Q1017
Ältere Daten

Laden Sie unsere App herunter

Einfacher Zugriff auf das gesamte Flugwetter auf Ihrem Mobiltelefon und Tablet.
Mit vielen Funktionen, die auf der Website nicht verfügbar sind, wie Offline-Unterstützung und eine persönliche Flughafenliste.

Wir und Dritte verfolgen dein Internetverhalten auf unserer Website mit Cookies. Wenn du fortfährst, gehen wir davon aus, dass du mit unserer Cookie-Richtlinie einverstanden bist. Mehr erfahren